sensor_id;sensor_type;location;lat;lon;timestamp;P1;durP1;ratioP1;P2;durP2;ratioP2
14849;SDS011;7517;48.400;11.770;2023-08-06T00:00:39;2.80;;;2.60;;
14849;SDS011;7517;48.400;11.770;2023-08-06T00:03:07;2.93;;;2.73;;
14849;SDS011;7517;48.400;11.770;2023-08-06T00:05:36;3.00;;;2.53;;
14849;SDS011;7517;48.400;11.770;2023-08-06T00:08:03;2.93;;;2.27;;
14849;SDS011;7517;48.400;11.770;2023-08-06T00:10:30;2.50;;;2.30;;
14849;SDS011;7517;48.400;11.770;2023-08-06T00:12:58;2.53;;;2.33;;
14849;SDS011;7517;48.400;11.770;2023-08-06T00:15:25;2.73;;;2.53;;
14849;SDS011;7517;48.400;11.770;2023-08-06T00:17:52;2.40;;;2.20;;
14849;SDS011;7517;48.400;11.770;2023-08-06T00:20:19;2.27;;;2.07;;
14849;SDS011;7517;48.400;11.770;2023-08-06T00:22:48;2.10;;;2.00;;
14849;SDS011;7517;48.400;11.770;2023-08-06T00:25:17;2.13;;;1.93;;
14849;SDS011;7517;48.400;11.770;2023-08-06T00:27:44;2.13;;;2.03;;
14849;SDS011;7517;48.400;11.770;2023-08-06T00:30:12;1.77;;;1.67;;
14849;SDS011;7517;48.400;11.770;2023-08-06T00:32:39;2.57;;;2.10;;
14849;SDS011;7517;48.400;11.770;2023-08-06T00:35:07;1.97;;;1.87;;
14849;SDS011;7517;48.400;11.770;2023-08-06T00:37:34;2.60;;;2.00;;
14849;SDS011;7517;48.400;11.770;2023-08-06T00:40:04;2.27;;;2.17;;
14849;SDS011;7517;48.400;11.770;2023-08-06T00:42:32;2.53;;;1.90;;
14849;SDS011;7517;48.400;11.770;2023-08-06T00:45:00;1.90;;;1.80;;
14849;SDS011;7517;48.400;11.770;2023-08-06T00:47:28;1.80;;;1.70;;
14849;SDS011;7517;48.400;11.770;2023-08-06T00:49:55;1.60;;;1.50;;
14849;SDS011;7517;48.400;11.770;2023-08-06T00:52:24;2.10;;;1.90;;
14849;SDS011;7517;48.400;11.770;2023-08-06T00:54:52;1.80;;;1.70;;
14849;SDS011;7517;48.400;11.770;2023-08-06T00:57:21;1.90;;;1.80;;
14849;SDS011;7517;48.400;11.770;2023-08-06T00:59:52;1.60;;;1.50;;
14849;SDS011;7517;48.400;11.770;2023-08-06T01:02:20;1.40;;;1.30;;
14849;SDS011;7517;48.400;11.770;2023-08-06T01:04:47;1.67;;;1.50;;
14849;SDS011;7517;48.400;11.770;2023-08-06T01:07:19;1.40;;;1.30;;
14849;SDS011;7517;48.400;11.770;2023-08-06T01:10:24;1.53;;;1.43;;
14849;SDS011;7517;48.400;11.770;2023-08-06T01:13:08;1.67;;;1.40;;
14849;SDS011;7517;48.400;11.770;2023-08-06T01:15:49;2.10;;;1.37;;
14849;SDS011;7517;48.400;11.770;2023-08-06T01:18:22;1.50;;;1.40;;
14849;SDS011;7517;48.400;11.770;2023-08-06T01:20:51;1.70;;;1.60;;
14849;SDS011;7517;48.400;11.770;2023-08-06T01:23:18;1.73;;;1.63;;
14849;SDS011;7517;48.400;11.770;2023-08-06T01:25:49;1.60;;;1.50;;
14849;SDS011;7517;48.400;11.770;2023-08-06T01:28:27;1.77;;;1.67;;
14849;SDS011;7517;48.400;11.770;2023-08-06T01:31:04;1.73;;;1.63;;
14849;SDS011;7517;48.400;11.770;2023-08-06T01:33:37;2.07;;;1.97;;
14849;SDS011;7517;48.400;11.770;2023-08-06T01:36:13;1.90;;;1.80;;
14849;SDS011;7517;48.400;11.770;2023-08-06T01:38:44;2.60;;;1.80;;
14849;SDS011;7517;48.400;11.770;2023-08-06T01:41:11;2.00;;;1.90;;
14849;SDS011;7517;48.400;11.770;2023-08-06T01:43:38;2.23;;;2.10;;
14849;SDS011;7517;48.400;11.770;2023-08-06T01:46:06;1.87;;;1.77;;
14849;SDS011;7517;48.400;11.770;2023-08-06T01:48:33;2.07;;;1.97;;
14849;SDS011;7517;48.400;11.770;2023-08-06T01:51:00;2.20;;;2.00;;
14849;SDS011;7517;48.400;11.770;2023-08-06T01:53:32;2.83;;;2.30;;
14849;SDS011;7517;48.400;11.770;2023-08-06T01:55:59;2.20;;;2.10;;
14849;SDS011;7517;48.400;11.770;2023-08-06T01:58:27;2.57;;;2.37;;
14849;SDS011;7517;48.400;11.770;2023-08-06T02:00:54;2.60;;;2.40;;
14849;SDS011;7517;48.400;11.770;2023-08-06T02:03:21;2.90;;;2.70;;
14849;SDS011;7517;48.400;11.770;2023-08-06T02:05:48;2.33;;;2.10;;
14849;SDS011;7517;48.400;11.770;2023-08-06T02:08:15;2.80;;;2.60;;
14849;SDS011;7517;48.400;11.770;2023-08-06T02:10:44;2.53;;;2.43;;
14849;SDS011;7517;48.400;11.770;2023-08-06T02:13:13;2.20;;;2.10;;
14849;SDS011;7517;48.400;11.770;2023-08-06T02:15:41;2.73;;;2.53;;
14849;SDS011;7517;48.400;11.770;2023-08-06T02:18:10;2.87;;;2.67;;
14849;SDS011;7517;48.400;11.770;2023-08-06T02:20:37;2.63;;;2.43;;
14849;SDS011;7517;48.400;11.770;2023-08-06T02:23:04;2.90;;;2.70;;
14849;SDS011;7517;48.400;11.770;2023-08-06T02:25:34;2.97;;;2.77;;
14849;SDS011;7517;48.400;11.770;2023-08-06T02:28:04;2.60;;;2.40;;
14849;SDS011;7517;48.400;11.770;2023-08-06T02:30:31;2.43;;;2.33;;
14849;SDS011;7517;48.400;11.770;2023-08-06T02:32:59;2.50;;;2.30;;
14849;SDS011;7517;48.400;11.770;2023-08-06T02:35:26;2.37;;;2.00;;
14849;SDS011;7517;48.400;11.770;2023-08-06T02:37:53;2.40;;;2.20;;
14849;SDS011;7517;48.400;11.770;2023-08-06T02:40:20;2.23;;;2.13;;
14849;SDS011;7517;48.400;11.770;2023-08-06T02:42:47;2.37;;;2.23;;
14849;SDS011;7517;48.400;11.770;2023-08-06T02:45:16;2.20;;;2.10;;
14849;SDS011;7517;48.400;11.770;2023-08-06T02:47:44;2.30;;;2.20;;
14849;SDS011;7517;48.400;11.770;2023-08-06T02:50:12;2.53;;;2.30;;
14849;SDS011;7517;48.400;11.770;2023-08-06T02:52:39;2.23;;;2.10;;
14849;SDS011;7517;48.400;11.770;2023-08-06T02:55:06;1.80;;;1.70;;
14849;SDS011;7517;48.400;11.770;2023-08-06T02:57:34;2.20;;;2.10;;
14849;SDS011;7517;48.400;11.770;2023-08-06T03:00:01;2.20;;;2.10;;
14849;SDS011;7517;48.400;11.770;2023-08-06T03:02:31;2.33;;;2.20;;
14849;SDS011;7517;48.400;11.770;2023-08-06T03:04:58;1.90;;;1.80;;
14849;SDS011;7517;48.400;11.770;2023-08-06T03:07:26;2.07;;;1.90;;
14849;SDS011;7517;48.400;11.770;2023-08-06T03:09:53;2.33;;;2.20;;
14849;SDS011;7517;48.400;11.770;2023-08-06T03:12:21;2.00;;;1.90;;
14849;SDS011;7517;48.400;11.770;2023-08-06T03:14:48;1.83;;;1.73;;
14849;SDS011;7517;48.400;11.770;2023-08-06T03:17:15;1.80;;;1.70;;
14849;SDS011;7517;48.400;11.770;2023-08-06T03:19:44;2.03;;;1.90;;
14849;SDS011;7517;48.400;11.770;2023-08-06T03:22:11;2.00;;;1.90;;
14849;SDS011;7517;48.400;11.770;2023-08-06T03:24:38;2.33;;;1.87;;
14849;SDS011;7517;48.400;11.770;2023-08-06T03:27:06;2.80;;;1.80;;
14849;SDS011;7517;48.400;11.770;2023-08-06T03:29:33;2.20;;;1.60;;
14849;SDS011;7517;48.400;11.770;2023-08-06T03:32:00;1.80;;;1.70;;
14849;SDS011;7517;48.400;11.770;2023-08-06T03:34:27;2.00;;;1.90;;
14849;SDS011;7517;48.400;11.770;2023-08-06T03:36:56;2.03;;;1.83;;
14849;SDS011;7517;48.400;11.770;2023-08-06T03:39:23;2.27;;;2.07;;
14849;SDS011;7517;48.400;11.770;2023-08-06T03:41:50;4.57;;;2.00;;
14849;SDS011;7517;48.400;11.770;2023-08-06T03:44:18;2.63;;;2.27;;
14849;SDS011;7517;48.400;11.770;2023-08-06T03:46:45;2.87;;;2.10;;
14849;SDS011;7517;48.400;11.770;2023-08-06T03:49:12;2.20;;;2.00;;
14849;SDS011;7517;48.400;11.770;2023-08-06T03:51:40;2.27;;;2.07;;
14849;SDS011;7517;48.400;11.770;2023-08-06T03:54:08;1.63;;;1.53;;
14849;SDS011;7517;48.400;11.770;2023-08-06T03:56:36;1.90;;;1.80;;
14849;SDS011;7517;48.400;11.770;2023-08-06T03:59:03;1.83;;;1.70;;
14849;SDS011;7517;48.400;11.770;2023-08-06T04:01:30;2.00;;;1.90;;
14849;SDS011;7517;48.400;11.770;2023-08-06T04:03:57;2.13;;;2.03;;
14849;SDS011;7517;48.400;11.770;2023-08-06T04:06:25;1.87;;;1.77;;
14849;SDS011;7517;48.400;11.770;2023-08-06T04:08:52;2.40;;;2.20;;
14849;SDS011;7517;48.400;11.770;2023-08-06T04:11:21;2.13;;;2.00;;
14849;SDS011;7517;48.400;11.770;2023-08-06T04:13:48;1.93;;;1.83;;
14849;SDS011;7517;48.400;11.770;2023-08-06T04:16:15;1.70;;;1.60;;
14849;SDS011;7517;48.400;11.770;2023-08-06T04:18:43;1.70;;;1.60;;
14849;SDS011;7517;48.400;11.770;2023-08-06T04:21:10;2.43;;;2.33;;
14849;SDS011;7517;48.400;11.770;2023-08-06T04:23:38;1.87;;;1.77;;
14849;SDS011;7517;48.400;11.770;2023-08-06T04:26:05;2.13;;;1.60;;
14849;SDS011;7517;48.400;11.770;2023-08-06T04:28:33;2.00;;;1.70;;
14849;SDS011;7517;48.400;11.770;2023-08-06T04:31:01;1.60;;;1.50;;
14849;SDS011;7517;48.400;11.770;2023-08-06T04:33:28;1.53;;;1.43;;
14849;SDS011;7517;48.400;11.770;2023-08-06T04:35:55;1.80;;;1.70;;
14849;SDS011;7517;48.400;11.770;2023-08-06T04:38:24;1.43;;;1.33;;
14849;SDS011;7517;48.400;11.770;2023-08-06T04:40:51;1.93;;;1.70;;
14849;SDS011;7517;48.400;11.770;2023-08-06T04:43:19;1.90;;;1.73;;
14849;SDS011;7517;48.400;11.770;2023-08-06T04:45:48;2.00;;;1.90;;
14849;SDS011;7517;48.400;11.770;2023-08-06T04:48:17;1.80;;;1.70;;
14849;SDS011;7517;48.400;11.770;2023-08-06T04:50:44;1.40;;;1.30;;
14849;SDS011;7517;48.400;11.770;2023-08-06T04:53:11;1.77;;;1.67;;
14849;SDS011;7517;48.400;11.770;2023-08-06T04:55:39;1.57;;;1.47;;
14849;SDS011;7517;48.400;11.770;2023-08-06T04:58:06;2.30;;;2.07;;
14849;SDS011;7517;48.400;11.770;2023-08-06T05:00:35;1.70;;;1.60;;
14849;SDS011;7517;48.400;11.770;2023-08-06T05:03:05;2.43;;;2.00;;
14849;SDS011;7517;48.400;11.770;2023-08-06T05:05:32;1.90;;;1.80;;
14849;SDS011;7517;48.400;11.770;2023-08-06T05:08:00;1.47;;;1.37;;
14849;SDS011;7517;48.400;11.770;2023-08-06T05:10:27;1.43;;;1.33;;
14849;SDS011;7517;48.400;11.770;2023-08-06T05:12:54;1.63;;;1.30;;
14849;SDS011;7517;48.400;11.770;2023-08-06T05:15:22;1.60;;;1.50;;
14849;SDS011;7517;48.400;11.770;2023-08-06T05:17:50;1.50;;;1.40;;
14849;SDS011;7517;48.400;11.770;2023-08-06T05:20:19;2.67;;;1.47;;
14849;SDS011;7517;48.400;11.770;2023-08-06T05:22:46;1.07;;;1.07;;
14849;SDS011;7517;48.400;11.770;2023-08-06T05:25:14;1.33;;;1.23;;
14849;SDS011;7517;48.400;11.770;2023-08-06T05:27:41;1.33;;;1.23;;
14849;SDS011;7517;48.400;11.770;2023-08-06T05:30:09;1.07;;;1.00;;
14849;SDS011;7517;48.400;11.770;2023-08-06T05:32:37;1.90;;;1.00;;
14849;SDS011;7517;48.400;11.770;2023-08-06T05:35:05;1.10;;;1.10;;
14849;SDS011;7517;48.400;11.770;2023-08-06T05:37:34;1.00;;;1.00;;
14849;SDS011;7517;48.400;11.770;2023-08-06T05:40:01;1.77;;;1.30;;
14849;SDS011;7517;48.400;11.770;2023-08-06T05:42:29;1.83;;;1.20;;
14849;SDS011;7517;48.400;11.770;2023-08-06T05:44:56;1.60;;;1.07;;
14849;SDS011;7517;48.400;11.770;2023-08-06T05:47:24;1.40;;;1.30;;
14849;SDS011;7517;48.400;11.770;2023-08-06T05:49:51;1.20;;;1.10;;
14849;SDS011;7517;48.400;11.770;2023-08-06T05:52:18;1.03;;;0.93;;
14849;SDS011;7517;48.400;11.770;2023-08-06T05:54:46;1.20;;;1.10;;
14849;SDS011;7517;48.400;11.770;2023-08-06T05:57:14;1.03;;;0.97;;
14849;SDS011;7517;48.400;11.770;2023-08-06T05:59:41;1.17;;;1.07;;
14849;SDS011;7517;48.400;11.770;2023-08-06T06:02:09;0.97;;;0.97;;
14849;SDS011;7517;48.400;11.770;2023-08-06T06:04:36;1.50;;;0.97;;
14849;SDS011;7517;48.400;11.770;2023-08-06T06:07:04;1.37;;;0.97;;
14849;SDS011;7517;48.400;11.770;2023-08-06T06:09:31;1.30;;;1.10;;
14849;SDS011;7517;48.400;11.770;2023-08-06T06:12:00;0.90;;;0.90;;
14849;SDS011;7517;48.400;11.770;2023-08-06T06:14:27;1.33;;;1.23;;
14849;SDS011;7517;48.400;11.770;2023-08-06T06:16:55;1.33;;;1.23;;
14849;SDS011;7517;48.400;11.770;2023-08-06T06:19:22;1.13;;;1.03;;
14849;SDS011;7517;48.400;11.770;2023-08-06T06:21:49;0.90;;;0.90;;
14849;SDS011;7517;48.400;11.770;2023-08-06T06:24:17;1.50;;;1.30;;
14849;SDS011;7517;48.400;11.770;2023-08-06T06:26:44;1.40;;;1.30;;
14849;SDS011;7517;48.400;11.770;2023-08-06T06:29:12;1.47;;;1.17;;
14849;SDS011;7517;48.400;11.770;2023-08-06T06:31:40;2.90;;;1.30;;
14849;SDS011;7517;48.400;11.770;2023-08-06T06:34:07;1.10;;;1.00;;
14849;SDS011;7517;48.400;11.770;2023-08-06T06:36:34;1.33;;;1.23;;
14849;SDS011;7517;48.400;11.770;2023-08-06T06:39:01;1.20;;;1.10;;
14849;SDS011;7517;48.400;11.770;2023-08-06T06:41:29;1.03;;;1.03;;
14849;SDS011;7517;48.400;11.770;2023-08-06T06:43:58;1.10;;;1.00;;
14849;SDS011;7517;48.400;11.770;2023-08-06T06:46:26;1.23;;;0.80;;
14849;SDS011;7517;48.400;11.770;2023-08-06T06:48:54;1.30;;;1.20;;
14849;SDS011;7517;48.400;11.770;2023-08-06T06:51:21;0.97;;;0.90;;
14849;SDS011;7517;48.400;11.770;2023-08-06T06:53:48;1.33;;;1.20;;
14849;SDS011;7517;48.400;11.770;2023-08-06T06:56:15;1.83;;;1.10;;
14849;SDS011;7517;48.400;11.770;2023-08-06T06:58:43;0.87;;;0.87;;
14849;SDS011;7517;48.400;11.770;2023-08-06T07:01:10;1.27;;;1.03;;
14849;SDS011;7517;48.400;11.770;2023-08-06T07:03:39;0.97;;;0.93;;
14849;SDS011;7517;48.400;11.770;2023-08-06T07:06:06;1.13;;;1.07;;
14849;SDS011;7517;48.400;11.770;2023-08-06T07:08:34;1.13;;;1.03;;
14849;SDS011;7517;48.400;11.770;2023-08-06T07:11:01;1.10;;;1.00;;
14849;SDS011;7517;48.400;11.770;2023-08-06T07:13:30;1.07;;;0.90;;
14849;SDS011;7517;48.400;11.770;2023-08-06T07:15:58;1.10;;;1.00;;
14849;SDS011;7517;48.400;11.770;2023-08-06T07:18:26;1.10;;;1.10;;
14849;SDS011;7517;48.400;11.770;2023-08-06T07:20:55;0.67;;;0.67;;
14849;SDS011;7517;48.400;11.770;2023-08-06T07:23:23;1.03;;;0.93;;
14849;SDS011;7517;48.400;11.770;2023-08-06T07:25:52;0.83;;;0.77;;
14849;SDS011;7517;48.400;11.770;2023-08-06T07:28:19;1.37;;;0.83;;
14849;SDS011;7517;48.400;11.770;2023-08-06T07:30:48;0.90;;;0.90;;
14849;SDS011;7517;48.400;11.770;2023-08-06T07:33:16;1.90;;;0.90;;
14849;SDS011;7517;48.400;11.770;2023-08-06T07:35:43;1.17;;;0.80;;
14849;SDS011;7517;48.400;11.770;2023-08-06T07:38:12;0.70;;;0.70;;
14849;SDS011;7517;48.400;11.770;2023-08-06T07:40:39;1.00;;;1.00;;
14849;SDS011;7517;48.400;11.770;2023-08-06T07:43:07;0.83;;;0.83;;
14849;SDS011;7517;48.400;11.770;2023-08-06T07:45:34;1.33;;;0.90;;
14849;SDS011;7517;48.400;11.770;2023-08-06T07:48:02;0.63;;;0.63;;
14849;SDS011;7517;48.400;11.770;2023-08-06T07:50:30;0.80;;;0.80;;
14849;SDS011;7517;48.400;11.770;2023-08-06T07:52:58;0.67;;;0.67;;
14849;SDS011;7517;48.400;11.770;2023-08-06T07:55:27;1.23;;;0.90;;
14849;SDS011;7517;48.400;11.770;2023-08-06T07:57:54;0.50;;;0.50;;
14849;SDS011;7517;48.400;11.770;2023-08-06T08:00:21;0.60;;;0.60;;
14849;SDS011;7517;48.400;11.770;2023-08-06T08:02:50;0.47;;;0.47;;
14849;SDS011;7517;48.400;11.770;2023-08-06T08:05:17;0.90;;;0.50;;
14849;SDS011;7517;48.400;11.770;2023-08-06T08:07:44;0.60;;;0.60;;
14849;SDS011;7517;48.400;11.770;2023-08-06T08:10:12;1.60;;;0.50;;
14849;SDS011;7517;48.400;11.770;2023-08-06T08:12:40;0.37;;;0.37;;
14849;SDS011;7517;48.400;11.770;2023-08-06T08:15:08;0.50;;;0.50;;
14849;SDS011;7517;48.400;11.770;2023-08-06T08:17:35;3.03;;;0.60;;
14849;SDS011;7517;48.400;11.770;2023-08-06T08:20:03;0.50;;;0.50;;
14849;SDS011;7517;48.400;11.770;2023-08-06T08:22:32;0.83;;;0.30;;
14849;SDS011;7517;48.400;11.770;2023-08-06T08:24:59;0.70;;;0.40;;
14849;SDS011;7517;48.400;11.770;2023-08-06T08:27:26;0.30;;;0.30;;
14849;SDS011;7517;48.400;11.770;2023-08-06T08:29:56;1.13;;;0.50;;
14849;SDS011;7517;48.400;11.770;2023-08-06T08:32:23;0.40;;;0.30;;
14849;SDS011;7517;48.400;11.770;2023-08-06T08:34:51;0.50;;;0.40;;
14849;SDS011;7517;48.400;11.770;2023-08-06T08:37:18;0.80;;;0.50;;
14849;SDS011;7517;48.400;11.770;2023-08-06T08:39:46;2.90;;;0.50;;
14849;SDS011;7517;48.400;11.770;2023-08-06T08:42:13;0.40;;;0.37;;
14849;SDS011;7517;48.400;11.770;2023-08-06T08:44:41;0.30;;;0.30;;
14849;SDS011;7517;48.400;11.770;2023-08-06T08:47:11;0.20;;;0.20;;
14849;SDS011;7517;48.400;11.770;2023-08-06T08:49:41;0.50;;;0.40;;
14849;SDS011;7517;48.400;11.770;2023-08-06T08:52:10;0.90;;;0.50;;
14849;SDS011;7517;48.400;11.770;2023-08-06T08:54:39;0.50;;;0.30;;
14849;SDS011;7517;48.400;11.770;2023-08-06T08:57:08;0.40;;;0.40;;
14849;SDS011;7517;48.400;11.770;2023-08-06T08:59:35;0.40;;;0.30;;
14849;SDS011;7517;48.400;11.770;2023-08-06T09:02:03;0.50;;;0.37;;
14849;SDS011;7517;48.400;11.770;2023-08-06T09:04:37;0.83;;;0.40;;
14849;SDS011;7517;48.400;11.770;2023-08-06T09:07:06;0.80;;;0.50;;
14849;SDS011;7517;48.400;11.770;2023-08-06T09:09:39;0.57;;;0.57;;
14849;SDS011;7517;48.400;11.770;2023-08-06T09:12:10;0.70;;;0.40;;
14849;SDS011;7517;48.400;11.770;2023-08-06T09:14:41;0.20;;;0.20;;
14849;SDS011;7517;48.400;11.770;2023-08-06T09:17:08;0.30;;;0.30;;
14849;SDS011;7517;48.400;11.770;2023-08-06T09:19:39;15.60;;;11.30;;
14849;SDS011;7517;48.400;11.770;2023-08-06T09:22:12;0.50;;;0.50;;
14849;SDS011;7517;48.400;11.770;2023-08-06T09:24:39;0.30;;;0.30;;
14849;SDS011;7517;48.400;11.770;2023-08-06T09:27:10;0.30;;;0.30;;
14849;SDS011;7517;48.400;11.770;2023-08-06T09:29:41;0.97;;;0.53;;
14849;SDS011;7517;48.400;11.770;2023-08-06T09:32:10;0.33;;;0.30;;
14849;SDS011;7517;48.400;11.770;2023-08-06T09:34:41;0.47;;;0.33;;
14849;SDS011;7517;48.400;11.770;2023-08-06T09:37:09;0.50;;;0.20;;
14849;SDS011;7517;48.400;11.770;2023-08-06T09:39:38;0.40;;;0.30;;
14849;SDS011;7517;48.400;11.770;2023-08-06T09:42:06;0.20;;;0.20;;
14849;SDS011;7517;48.400;11.770;2023-08-06T09:44:33;0.20;;;0.20;;
14849;SDS011;7517;48.400;11.770;2023-08-06T09:47:02;0.30;;;0.30;;
14849;SDS011;7517;48.400;11.770;2023-08-06T09:49:41;0.20;;;0.20;;
14849;SDS011;7517;48.400;11.770;2023-08-06T09:52:10;0.17;;;0.17;;
14849;SDS011;7517;48.400;11.770;2023-08-06T09:54:40;0.40;;;0.33;;
14849;SDS011;7517;48.400;11.770;2023-08-06T09:57:11;0.30;;;0.30;;
14849;SDS011;7517;48.400;11.770;2023-08-06T09:59:39;0.20;;;0.20;;
14849;SDS011;7517;48.400;11.770;2023-08-06T10:02:11;1.17;;;0.17;;
14849;SDS011;7517;48.400;11.770;2023-08-06T10:04:41;0.60;;;0.47;;
14849;SDS011;7517;48.400;11.770;2023-08-06T10:07:11;0.20;;;0.20;;
14849;SDS011;7517;48.400;11.770;2023-08-06T10:09:38;0.37;;;0.27;;
14849;SDS011;7517;48.400;11.770;2023-08-06T10:12:06;0.27;;;0.13;;
14849;SDS011;7517;48.400;11.770;2023-08-06T10:14:35;0.57;;;0.27;;
14849;SDS011;7517;48.400;11.770;2023-08-06T10:17:05;0.83;;;0.13;;
14849;SDS011;7517;48.400;11.770;2023-08-06T10:19:32;1.33;;;0.20;;
14849;SDS011;7517;48.400;11.770;2023-08-06T10:22:11;0.40;;;0.10;;
14849;SDS011;7517;48.400;11.770;2023-08-06T10:24:45;0.50;;;0.30;;
14849;SDS011;7517;48.400;11.770;2023-08-06T10:27:19;0.30;;;0.20;;
14849;SDS011;7517;48.400;11.770;2023-08-06T10:29:48;0.17;;;0.17;;
14849;SDS011;7517;48.400;11.770;2023-08-06T10:32:15;0.37;;;0.20;;
14849;SDS011;7517;48.400;11.770;2023-08-06T10:34:56;0.10;;;0.10;;
14849;SDS011;7517;48.400;11.770;2023-08-06T10:37:34;0.10;;;0.10;;
14849;SDS011;7517;48.400;11.770;2023-08-06T10:40:03;0.20;;;0.20;;
14849;SDS011;7517;48.400;11.770;2023-08-06T10:42:33;0.60;;;0.20;;
14849;SDS011;7517;48.400;11.770;2023-08-06T10:45:14;0.00;;;0.00;;
14849;SDS011;7517;48.400;11.770;2023-08-06T10:47:44;0.00;;;0.00;;
14849;SDS011;7517;48.400;11.770;2023-08-06T10:50:12;0.93;;;0.30;;
14849;SDS011;7517;48.400;11.770;2023-08-06T10:52:44;0.27;;;0.20;;
14849;SDS011;7517;48.400;11.770;2023-08-06T10:55:12;0.60;;;0.20;;
14849;SDS011;7517;48.400;11.770;2023-08-06T10:57:40;0.77;;;0.20;;
14849;SDS011;7517;48.400;11.770;2023-08-06T11:00:08;0.00;;;0.00;;
14849;SDS011;7517;48.400;11.770;2023-08-06T11:02:39;0.10;;;0.00;;
14849;SDS011;7517;48.400;11.770;2023-08-06T11:05:06;0.37;;;0.10;;
14849;SDS011;7517;48.400;11.770;2023-08-06T11:07:35;0.07;;;0.00;;
14849;SDS011;7517;48.400;11.770;2023-08-06T11:10:05;0.40;;;0.10;;
14849;SDS011;7517;48.400;11.770;2023-08-06T11:12:36;0.10;;;0.10;;
14849;SDS011;7517;48.400;11.770;2023-08-06T11:15:03;0.37;;;0.20;;
14849;SDS011;7517;48.400;11.770;2023-08-06T11:17:32;0.10;;;0.10;;
14849;SDS011;7517;48.400;11.770;2023-08-06T11:20:01;0.67;;;0.20;;
14849;SDS011;7517;48.400;11.770;2023-08-06T11:22:30;0.10;;;0.10;;
14849;SDS011;7517;48.400;11.770;2023-08-06T11:24:58;0.17;;;0.10;;
14849;SDS011;7517;48.400;11.770;2023-08-06T11:27:28;0.20;;;0.00;;
14849;SDS011;7517;48.400;11.770;2023-08-06T11:29:56;0.20;;;0.20;;
14849;SDS011;7517;48.400;11.770;2023-08-06T11:32:23;0.10;;;0.00;;
14849;SDS011;7517;48.400;11.770;2023-08-06T11:34:52;0.10;;;0.10;;
14849;SDS011;7517;48.400;11.770;2023-08-06T11:37:21;0.10;;;0.10;;
14849;SDS011;7517;48.400;11.770;2023-08-06T11:39:50;0.20;;;0.10;;
14849;SDS011;7517;48.400;11.770;2023-08-06T11:42:18;0.03;;;0.00;;
14849;SDS011;7517;48.400;11.770;2023-08-06T11:44:47;0.10;;;0.00;;
14849;SDS011;7517;48.400;11.770;2023-08-06T11:47:15;0.00;;;0.00;;
14849;SDS011;7517;48.400;11.770;2023-08-06T11:49:44;0.00;;;0.00;;
14849;SDS011;7517;48.400;11.770;2023-08-06T11:52:14;0.33;;;0.00;;
14849;SDS011;7517;48.400;11.770;2023-08-06T11:54:44;0.27;;;0.10;;
14849;SDS011;7517;48.400;11.770;2023-08-06T11:57:14;0.00;;;0.00;;
14849;SDS011;7517;48.400;11.770;2023-08-06T11:59:43;0.00;;;0.00;;
14849;SDS011;7517;48.400;11.770;2023-08-06T12:02:13;0.00;;;0.00;;
14849;SDS011;7517;48.400;11.770;2023-08-06T12:07:37;0.00;;;0.00;;
14849;SDS011;7517;48.400;11.770;2023-08-06T12:10:06;0.40;;;0.00;;
14849;SDS011;7517;48.400;11.770;2023-08-06T12:12:34;0.10;;;0.00;;
14849;SDS011;7517;48.400;11.770;2023-08-06T12:15:02;0.10;;;0.00;;
14849;SDS011;7517;48.400;11.770;2023-08-06T12:17:33;0.00;;;0.00;;
14849;SDS011;7517;48.400;11.770;2023-08-06T12:20:01;0.73;;;0.07;;
14849;SDS011;7517;48.400;11.770;2023-08-06T12:22:31;0.00;;;0.00;;
14849;SDS011;7517;48.400;11.770;2023-08-06T12:25:00;0.00;;;0.00;;
14849;SDS011;7517;48.400;11.770;2023-08-06T12:27:29;0.00;;;0.00;;
14849;SDS011;7517;48.400;11.770;2023-08-06T12:29:56;0.00;;;0.00;;
14849;SDS011;7517;48.400;11.770;2023-08-06T12:32:23;0.20;;;0.10;;
14849;SDS011;7517;48.400;11.770;2023-08-06T12:34:52;0.00;;;0.00;;
14849;SDS011;7517;48.400;11.770;2023-08-06T12:37:19;0.03;;;0.03;;
14849;SDS011;7517;48.400;11.770;2023-08-06T12:39:47;0.10;;;0.10;;
14849;SDS011;7517;48.400;11.770;2023-08-06T12:42:14;0.00;;;0.00;;
14849;SDS011;7517;48.400;11.770;2023-08-06T12:44:41;0.10;;;0.10;;
14849;SDS011;7517;48.400;11.770;2023-08-06T12:47:09;1.13;;;0.10;;
14849;SDS011;7517;48.400;11.770;2023-08-06T12:49:36;0.10;;;0.00;;
14849;SDS011;7517;48.400;11.770;2023-08-06T12:52:06;0.73;;;0.00;;
14849;SDS011;7517;48.400;11.770;2023-08-06T12:54:34;0.00;;;0.00;;
14849;SDS011;7517;48.400;11.770;2023-08-06T12:57:02;0.23;;;0.00;;
14849;SDS011;7517;48.400;11.770;2023-08-06T12:59:31;0.00;;;0.00;;
14849;SDS011;7517;48.400;11.770;2023-08-06T13:02:01;0.00;;;0.00;;
14849;SDS011;7517;48.400;11.770;2023-08-06T13:04:28;2.00;;;0.33;;
14849;SDS011;7517;48.400;11.770;2023-08-06T13:06:56;0.00;;;0.00;;
14849;SDS011;7517;48.400;11.770;2023-08-06T13:09:24;0.33;;;0.00;;
14849;SDS011;7517;48.400;11.770;2023-08-06T13:11:52;0.00;;;0.00;;
14849;SDS011;7517;48.400;11.770;2023-08-06T13:14:20;0.20;;;0.00;;
14849;SDS011;7517;48.400;11.770;2023-08-06T13:16:47;0.00;;;0.00;;
14849;SDS011;7517;48.400;11.770;2023-08-06T13:19:14;0.00;;;0.00;;
14849;SDS011;7517;48.400;11.770;2023-08-06T13:22:01;0.00;;;0.00;;
14849;SDS011;7517;48.400;11.770;2023-08-06T13:24:33;0.10;;;0.00;;
14849;SDS011;7517;48.400;11.770;2023-08-06T13:27:00;0.10;;;0.00;;
14849;SDS011;7517;48.400;11.770;2023-08-06T13:29:28;1.60;;;0.00;;
14849;SDS011;7517;48.400;11.770;2023-08-06T13:31:55;0.00;;;0.00;;
14849;SDS011;7517;48.400;11.770;2023-08-06T13:34:22;0.00;;;0.00;;
14849;SDS011;7517;48.400;11.770;2023-08-06T13:36:50;0.10;;;0.00;;
14849;SDS011;7517;48.400;11.770;2023-08-06T13:39:18;0.00;;;0.00;;
14849;SDS011;7517;48.400;11.770;2023-08-06T13:41:46;0.33;;;0.00;;
14849;SDS011;7517;48.400;11.770;2023-08-06T13:44:13;0.00;;;0.00;;
14849;SDS011;7517;48.400;11.770;2023-08-06T13:46:41;0.00;;;0.00;;
14849;SDS011;7517;48.400;11.770;2023-08-06T13:49:09;0.27;;;0.20;;
14849;SDS011;7517;48.400;11.770;2023-08-06T13:51:36;0.53;;;0.10;;
14849;SDS011;7517;48.400;11.770;2023-08-06T13:54:03;0.83;;;0.10;;
14849;SDS011;7517;48.400;11.770;2023-08-06T13:56:32;0.40;;;0.10;;
14849;SDS011;7517;48.400;11.770;2023-08-06T13:59:03;0.27;;;0.20;;
14849;SDS011;7517;48.400;11.770;2023-08-06T14:01:31;0.20;;;0.00;;
14849;SDS011;7517;48.400;11.770;2023-08-06T14:03:59;0.00;;;0.00;;
14849;SDS011;7517;48.400;11.770;2023-08-06T14:06:26;0.00;;;0.00;;
14849;SDS011;7517;48.400;11.770;2023-08-06T14:08:53;0.63;;;0.00;;
14849;SDS011;7517;48.400;11.770;2023-08-06T14:11:20;0.10;;;0.10;;
14849;SDS011;7517;48.400;11.770;2023-08-06T14:13:48;0.00;;;0.00;;
14849;SDS011;7517;48.400;11.770;2023-08-06T14:16:17;1.37;;;0.00;;
14849;SDS011;7517;48.400;11.770;2023-08-06T14:18:44;0.10;;;0.00;;
14849;SDS011;7517;48.400;11.770;2023-08-06T14:21:12;0.00;;;0.00;;
14849;SDS011;7517;48.400;11.770;2023-08-06T14:23:39;0.03;;;0.00;;
14849;SDS011;7517;48.400;11.770;2023-08-06T14:26:07;0.13;;;0.00;;
14849;SDS011;7517;48.400;11.770;2023-08-06T14:28:35;0.10;;;0.00;;
14849;SDS011;7517;48.400;11.770;2023-08-06T14:31:03;0.20;;;0.10;;
14849;SDS011;7517;48.400;11.770;2023-08-06T14:33:32;0.00;;;0.00;;
14849;SDS011;7517;48.400;11.770;2023-08-06T14:35:59;0.73;;;0.30;;
14849;SDS011;7517;48.400;11.770;2023-08-06T14:38:27;0.00;;;0.00;;
14849;SDS011;7517;48.400;11.770;2023-08-06T14:40:54;0.13;;;0.10;;
14849;SDS011;7517;48.400;11.770;2023-08-06T14:43:22;0.43;;;0.10;;
14849;SDS011;7517;48.400;11.770;2023-08-06T14:45:49;0.43;;;0.00;;
14849;SDS011;7517;48.400;11.770;2023-08-06T14:48:16;0.00;;;0.00;;
14849;SDS011;7517;48.400;11.770;2023-08-06T14:50:45;0.10;;;0.10;;
14849;SDS011;7517;48.400;11.770;2023-08-06T14:53:12;1.20;;;0.20;;
14849;SDS011;7517;48.400;11.770;2023-08-06T14:55:40;0.30;;;0.20;;
14849;SDS011;7517;48.400;11.770;2023-08-06T14:58:08;0.50;;;0.40;;